Araguacu, Brazil
Current Conditions -  °F | °C
As of 4:00 PM on Friday 24 Oct 2014 (Local Time) from SBBU Reporting Station
Scattered Clouds Scattered Clouds  
Wind Chill: 90°   Ceiling: Unl
Heat Index: 96°   Visibility: 6mi
Dew Point: 72°   Wind: 9mph
Humidity: 55%   Direction: 310°NW
Pressure: 29.88"   Gusts: NA
Location:  22.42°S, 49.82°W
Report Text: SBBU 241800Z 31008KT 9999 SCT045 FEW050TCU 32/22 Q1012
Loading
Personal Weather Stations






























Interactive Weather Map
Tropical Storm Tracking
New forecast layout! Learn more

10-Day Weather Forecast

Advertisements
Track Severe Weather on mobile